createdAt,value
2019-05-09T00:02:27.806Z,1.60
2019-05-09T00:04:57.192Z,1.30
2019-05-09T00:07:26.598Z,1.15
2019-05-09T00:09:56.954Z,1.50
2019-05-09T00:12:26.342Z,1.30
2019-05-09T00:14:55.738Z,1.30
2019-05-09T00:17:25.118Z,1.40
2019-05-09T00:19:56.153Z,1.67
2019-05-09T00:22:25.545Z,1.45
2019-05-09T00:24:54.936Z,1.20
2019-05-09T00:30:06.714Z,1.50
2019-05-09T00:32:37.746Z,1.35
2019-05-09T00:35:14.136Z,1.25
2019-05-09T00:37:54.007Z,1.60
2019-05-09T00:40:24.435Z,1.20
2019-05-09T00:42:54.598Z,1.63
2019-05-09T00:45:25.977Z,1.30
2019-05-09T00:47:55.370Z,1.40
2019-05-09T00:50:24.767Z,1.40
2019-05-09T00:52:54.160Z,1.50
2019-05-09T00:55:24.626Z,1.57
2019-05-09T00:57:54.071Z,1.50
2019-05-09T01:00:24.364Z,1.33
2019-05-09T01:02:54.265Z,1.30
2019-05-09T01:05:23.985Z,1.30
2019-05-09T01:07:53.891Z,1.67
2019-05-09T01:10:23.813Z,1.45
2019-05-09T01:12:54.260Z,1.40
2019-05-09T01:15:24.411Z,1.52
2019-05-09T01:17:53.874Z,1.40
2019-05-09T01:20:24.170Z,1.52
2019-05-09T01:22:54.198Z,1.40
2019-05-09T01:25:24.145Z,1.40
2019-05-09T01:27:53.980Z,1.50
2019-05-09T01:30:24.293Z,1.72
2019-05-09T01:32:55.436Z,1.75
2019-05-09T01:35:24.824Z,1.45
2019-05-09T01:37:54.206Z,1.62
2019-05-09T01:40:23.935Z,1.65
2019-05-09T01:42:53.874Z,1.60
2019-05-09T01:45:23.753Z,1.50
2019-05-09T01:47:54.333Z,1.50
2019-05-09T01:50:23.723Z,1.30
2019-05-09T01:52:53.411Z,1.17
2019-05-09T01:55:24.695Z,1.42
2019-05-09T01:57:54.086Z,1.37
2019-05-09T02:00:23.981Z,1.20
2019-05-09T02:02:54.181Z,1.30
2019-05-09T02:05:24.224Z,1.42
2019-05-09T02:07:54.352Z,1.48
2019-05-09T02:10:24.362Z,1.57
2019-05-09T02:12:54.824Z,1.47
2019-05-09T02:15:43.448Z,1.47
2019-05-09T02:18:29.205Z,1.50
2019-05-09T02:20:58.590Z,1.65
2019-05-09T02:23:27.977Z,1.60
2019-05-09T02:25:57.435Z,1.80
2019-05-09T02:28:26.831Z,1.50
2019-05-09T02:30:56.342Z,1.90
2019-05-09T02:33:26.442Z,1.82
2019-05-09T02:36:01.453Z,1.68
2019-05-09T02:38:28.781Z,1.90
2019-05-09T02:40:59.553Z,1.40
2019-05-09T02:43:29.370Z,1.87
2019-05-09T02:46:00.411Z,1.60
2019-05-09T02:48:29.811Z,1.70
2019-05-09T02:51:00.244Z,1.70
2019-05-09T02:53:30.027Z,1.50
2019-05-09T02:55:59.426Z,1.55
2019-05-09T02:58:30.452Z,1.60
2019-05-09T03:01:01.505Z,1.67
2019-05-09T03:03:35.161Z,1.40
2019-05-09T03:06:04.552Z,1.90
2019-05-09T03:08:33.922Z,1.70
2019-05-09T03:11:03.345Z,1.80
2019-05-09T03:13:32.716Z,2.00
2019-05-09T03:16:03.800Z,1.80
2019-05-09T03:18:33.209Z,1.80
2019-05-09T03:21:08.975Z,2.35
2019-05-09T03:23:38.855Z,2.30
2019-05-09T03:26:10.122Z,2.10
2019-05-09T03:28:43.844Z,2.17
2019-05-09T03:31:14.861Z,1.65
2019-05-09T03:33:44.250Z,1.70
2019-05-09T03:36:13.628Z,1.80
2019-05-09T03:38:43.261Z,1.55
2019-05-09T03:41:13.478Z,2.00
2019-05-09T03:43:42.867Z,1.87
2019-05-09T03:46:22.745Z,1.70
2019-05-09T03:49:00.596Z,1.60
2019-05-09T03:51:30.259Z,1.57
2019-05-09T03:53:59.656Z,2.00
2019-05-09T03:56:30.678Z,1.80
2019-05-09T03:59:00.063Z,1.83
2019-05-09T04:01:29.598Z,1.52
2019-05-09T04:03:58.978Z,1.70
2019-05-09T04:06:28.424Z,1.70
2019-05-09T04:08:58.472Z,1.70
2019-05-09T04:11:28.120Z,1.80
2019-05-09T04:13:59.607Z,1.80
2019-05-09T04:16:29.010Z,2.00
2019-05-09T04:18:58.404Z,1.80
2019-05-09T04:21:28.122Z,1.82
2019-05-09T04:23:58.423Z,1.52
2019-05-09T04:26:29.651Z,1.82
2019-05-09T04:28:59.046Z,1.90
2019-05-09T04:31:28.502Z,1.80
2019-05-09T04:33:57.903Z,1.50
2019-05-09T04:36:39.568Z,1.85
2019-05-09T04:39:12.601Z,1.80
2019-05-09T04:41:42.143Z,1.93
2019-05-09T04:44:28.536Z,1.80
2019-05-09T04:47:00.098Z,1.70
2019-05-09T04:49:29.960Z,1.70
2019-05-09T04:52:00.166Z,1.73
2019-05-09T04:54:29.516Z,1.60
2019-05-09T04:56:58.900Z,1.80
2019-05-09T04:59:28.589Z,2.00
2019-05-09T05:02:02.536Z,1.77
2019-05-09T05:04:31.920Z,1.77
2019-05-09T05:07:01.329Z,1.75
2019-05-09T05:09:30.710Z,1.80
2019-05-09T05:12:00.085Z,1.67
2019-05-09T05:14:30.044Z,1.90
2019-05-09T05:17:07.427Z,1.82
2019-05-09T05:19:31.668Z,1.72
2019-05-09T05:22:03.077Z,2.10
2019-05-09T05:24:38.189Z,2.20
2019-05-09T05:27:08.385Z,2.00
2019-05-09T05:29:38.472Z,2.30
2019-05-09T05:32:09.546Z,1.80
2019-05-09T05:34:40.556Z,2.20
2019-05-09T05:37:10.301Z,1.80
2019-05-09T05:39:39.681Z,2.15
2019-05-09T05:42:09.065Z,1.80
2019-05-09T05:44:38.709Z,1.47
2019-05-09T05:47:13.422Z,1.60
2019-05-09T05:49:42.791Z,1.50
2019-05-09T05:52:12.172Z,2.23
2019-05-09T05:54:42.081Z,3.03
2019-05-09T05:57:11.791Z,2.53
2019-05-09T05:59:41.657Z,2.72
2019-05-09T06:02:10.984Z,2.40
2019-05-09T06:04:40.379Z,2.30
2019-05-09T06:07:09.758Z,2.98
2019-05-09T06:09:39.133Z,2.57
2019-05-09T06:12:08.606Z,2.10
2019-05-09T06:14:38.099Z,2.45
2019-05-09T06:17:08.230Z,2.50
2019-05-09T06:19:38.198Z,2.60
2019-05-09T06:22:08.436Z,2.40
2019-05-09T06:24:38.693Z,2.67
2019-05-09T06:27:10.378Z,2.30
2019-05-09T06:29:39.514Z,2.33
2019-05-09T06:32:08.887Z,2.92
2019-05-09T06:34:41.821Z,2.90
2019-05-09T06:37:09.445Z,2.80
2019-05-09T06:39:38.874Z,3.13
2019-05-09T06:42:09.217Z,3.20
2019-05-09T06:44:58.418Z,3.57
2019-05-09T06:47:48.670Z,4.10
2019-05-09T06:50:19.309Z,3.60
2019-05-09T06:52:48.683Z,3.25
2019-05-09T06:55:18.069Z,3.80
2019-05-09T06:57:48.863Z,3.42
2019-05-09T07:00:23.097Z,3.47
2019-05-09T07:03:00.565Z,4.75
2019-05-09T07:05:29.897Z,6.37
2019-05-09T07:08:03.648Z,4.43
2019-05-09T07:10:37.716Z,2.97
2019-05-09T07:13:07.896Z,8.78
2019-05-09T07:15:37.685Z,3.20
2019-05-09T07:18:08.095Z,2.90
2019-05-09T07:20:37.959Z,3.10
2019-05-09T07:23:09.174Z,3.03
2019-05-09T07:25:41.187Z,3.17
2019-05-09T07:28:10.570Z,3.30
2019-05-09T07:30:41.669Z,3.33
2019-05-09T07:33:15.409Z,3.30
2019-05-09T07:35:44.801Z,3.50
2019-05-09T07:38:14.199Z,3.05
2019-05-09T07:40:43.564Z,3.15
2019-05-09T07:43:12.961Z,3.03
2019-05-09T07:45:43.983Z,2.92
2019-05-09T07:48:13.372Z,2.70
2019-05-09T07:50:42.760Z,2.80
2019-05-09T07:53:12.158Z,3.65
2019-05-09T07:55:41.542Z,3.10
2019-05-09T07:58:14.252Z,3.70
2019-05-09T08:00:42.027Z,3.33
2019-05-09T08:03:13.228Z,3.72
2019-05-09T08:05:42.745Z,4.05
2019-05-09T08:08:18.621Z,4.33
2019-05-09T08:10:48.104Z,3.33
2019-05-09T08:13:18.175Z,3.12
2019-05-09T08:15:48.565Z,2.90
2019-05-09T08:18:17.947Z,3.33
2019-05-09T08:20:47.962Z,3.47
2019-05-09T08:23:18.355Z,3.10
2019-05-09T08:25:48.527Z,2.17
2019-05-09T08:28:20.143Z,2.80
2019-05-09T08:30:49.097Z,2.60
2019-05-09T08:33:19.543Z,2.62
2019-05-09T08:35:52.530Z,2.70
2019-05-09T08:38:20.096Z,2.90
2019-05-09T08:40:51.130Z,2.77
2019-05-09T08:43:20.519Z,3.20
2019-05-09T08:45:49.959Z,2.83
2019-05-09T08:48:19.362Z,2.17
2019-05-09T08:50:50.413Z,2.58
2019-05-09T08:53:19.849Z,2.67
2019-05-09T08:55:49.192Z,3.77
2019-05-09T08:58:19.855Z,1.95
2019-05-09T09:00:49.395Z,1.70
2019-05-09T09:03:18.860Z,1.77
2019-05-09T09:05:48.684Z,1.80
2019-05-09T09:08:18.563Z,2.25
2019-05-09T09:10:48.800Z,2.50
2019-05-09T09:13:18.611Z,2.47
2019-05-09T09:16:05.179Z,2.20
2019-05-09T09:18:19.128Z,2.40
2019-05-09T09:20:48.773Z,2.60
2019-05-09T09:23:18.324Z,1.82
2019-05-09T09:25:48.716Z,2.43
2019-05-09T09:28:18.480Z,2.17
2019-05-09T09:30:48.552Z,2.20
2019-05-09T09:33:18.123Z,2.00
2019-05-09T09:35:48.950Z,2.33
2019-05-09T09:38:18.608Z,2.43
2019-05-09T09:40:48.067Z,2.70
2019-05-09T09:43:17.805Z,2.52
2019-05-09T09:45:48.037Z,4.30
2019-05-09T09:48:18.419Z,4.47
2019-05-09T09:50:51.392Z,4.07
2019-05-09T09:53:18.962Z,2.90
2019-05-09T09:55:48.412Z,3.40
2019-05-09T09:58:19.029Z,3.00
2019-05-09T10:01:08.817Z,3.05
2019-05-09T10:03:37.323Z,3.40
2019-05-09T10:06:06.691Z,3.30
2019-05-09T10:08:39.582Z,2.95
2019-05-09T10:11:08.396Z,3.08
2019-05-09T10:13:37.781Z,3.00
2019-05-09T10:16:26.570Z,3.33
2019-05-09T10:18:50.285Z,3.30
2019-05-09T10:21:24.196Z,3.53
2019-05-09T10:23:53.724Z,3.40
2019-05-09T10:26:23.116Z,3.13
2019-05-09T10:28:52.318Z,2.53
2019-05-09T10:31:21.708Z,2.63
2019-05-09T10:33:51.520Z,3.53
2019-05-09T10:36:20.880Z,3.30
2019-05-09T10:38:50.273Z,2.65
2019-05-09T10:41:19.671Z,3.00
2019-05-09T10:43:57.895Z,3.10
2019-05-09T10:46:52.029Z,2.75
2019-05-09T10:49:09.562Z,3.33
2019-05-09T10:51:39.927Z,2.53
2019-05-09T10:54:09.376Z,3.15
2019-05-09T10:56:38.767Z,3.17
2019-05-09T10:59:08.163Z,3.15
2019-05-09T11:01:38.329Z,2.90
2019-05-09T11:04:08.423Z,2.55
2019-05-09T11:06:39.193Z,2.87
2019-05-09T11:09:09.920Z,2.60
2019-05-09T11:11:39.448Z,2.67
2019-05-09T11:14:08.962Z,2.05
2019-05-09T11:16:45.889Z,1.20
2019-05-09T11:19:09.425Z,1.40
2019-05-09T11:21:39.359Z,1.10
2019-05-09T11:24:08.963Z,1.30
2019-05-09T11:26:39.909Z,1.27
2019-05-09T11:29:09.634Z,1.40
2019-05-09T11:31:39.029Z,1.25
2019-05-09T11:34:09.101Z,1.05
2019-05-09T11:36:38.631Z,1.10
2019-05-09T11:39:10.846Z,1.50
2019-05-09T11:41:40.050Z,1.20
2019-05-09T11:44:09.498Z,1.27
2019-05-09T11:46:38.928Z,1.50
2019-05-09T11:49:08.699Z,1.80
2019-05-09T11:51:38.160Z,1.50
2019-05-09T11:54:09.194Z,1.63
2019-05-09T11:59:08.258Z,1.40
2019-05-09T12:01:39.782Z,1.23
2019-05-09T12:04:09.000Z,1.20
2019-05-09T12:06:38.574Z,1.35
2019-05-09T12:09:09.193Z,1.60
2019-05-09T12:11:43.579Z,1.30
2019-05-09T12:14:09.833Z,1.00
2019-05-09T12:16:39.247Z,1.10
2019-05-09T12:19:08.637Z,1.30
2019-05-09T12:21:47.120Z,1.30
2019-05-09T12:24:09.263Z,2.10
2019-05-09T12:26:39.201Z,2.37
2019-05-09T12:29:08.946Z,1.50
2019-05-09T12:31:39.358Z,1.00
2019-05-09T12:34:09.457Z,1.00
2019-05-09T12:36:39.813Z,1.00
2019-05-09T12:39:09.523Z,1.10
2019-05-09T12:41:38.906Z,1.20
2019-05-09T12:44:09.002Z,1.23
2019-05-09T12:46:39.473Z,1.10
2019-05-09T12:49:09.222Z,0.82
2019-05-09T12:51:38.640Z,1.10
2019-05-09T12:54:08.741Z,1.10
2019-05-09T12:56:38.690Z,1.35
2019-05-09T12:59:08.808Z,1.17
2019-05-09T13:01:41.122Z,1.00
2019-05-09T13:04:10.453Z,1.05
2019-05-09T13:06:39.828Z,1.30
2019-05-09T13:09:09.217Z,1.42
2019-05-09T13:11:39.286Z,1.22
2019-05-09T13:14:10.068Z,1.60
2019-05-09T13:16:52.364Z,1.50
2019-05-09T13:19:19.658Z,1.60
2019-05-09T13:21:49.042Z,1.67
2019-05-09T13:24:19.605Z,1.40
2019-05-09T13:26:50.441Z,1.00
2019-05-09T13:29:19.828Z,1.27
2019-05-09T13:31:49.206Z,1.10
2019-05-09T13:34:19.042Z,1.30
2019-05-09T13:36:49.054Z,1.20
2019-05-09T13:39:18.503Z,0.90
2019-05-09T13:41:47.882Z,1.10
2019-05-09T13:44:18.053Z,1.10
2019-05-09T13:46:48.903Z,1.05
2019-05-09T13:49:19.438Z,1.20
2019-05-09T13:51:58.701Z,1.10
2019-05-09T13:54:20.158Z,1.20
2019-05-09T13:56:56.602Z,1.10
2019-05-09T13:59:20.732Z,1.00
2019-05-09T14:01:50.280Z,0.85
2019-05-09T14:04:19.745Z,0.90
2019-05-09T14:06:49.125Z,1.17
2019-05-09T14:09:19.884Z,1.00
2019-05-09T14:11:49.600Z,1.30
2019-05-09T14:14:18.982Z,1.42
2019-05-09T14:16:48.434Z,0.90
2019-05-09T14:19:36.191Z,0.90
2019-05-09T14:21:48.903Z,0.77
2019-05-09T14:24:19.373Z,1.10
2019-05-09T14:26:48.922Z,0.70
2019-05-09T14:29:20.499Z,0.90
2019-05-09T14:31:49.404Z,0.77
2019-05-09T14:34:19.726Z,0.90
2019-05-09T14:36:49.682Z,0.60
2019-05-09T14:39:19.302Z,0.83
2019-05-09T14:41:48.746Z,0.90
2019-05-09T14:44:18.368Z,1.10
2019-05-09T14:46:48.424Z,1.10
2019-05-09T14:49:18.449Z,1.00
2019-05-09T14:51:50.040Z,0.93
2019-05-09T14:54:18.927Z,1.00
2019-05-09T14:56:48.742Z,1.00
2019-05-09T14:59:19.146Z,0.98
2019-05-09T15:01:49.495Z,1.05
2019-05-09T15:04:20.186Z,0.80
2019-05-09T15:06:49.914Z,0.93
2019-05-09T15:09:19.292Z,1.07
2019-05-09T15:11:48.817Z,0.90
2019-05-09T15:14:18.397Z,0.90
2019-05-09T15:16:48.726Z,0.90
2019-05-09T15:19:19.129Z,0.77
2019-05-09T15:21:48.996Z,1.20
2019-05-09T15:24:19.312Z,1.10
2019-05-09T15:26:48.943Z,1.20
2019-05-09T15:29:18.322Z,0.93
2019-05-09T15:31:54.833Z,0.82
2019-05-09T15:34:18.804Z,1.02
2019-05-09T15:36:48.459Z,0.97
2019-05-09T15:39:18.518Z,0.80
2019-05-09T15:41:48.064Z,0.90
2019-05-09T15:44:18.638Z,0.80
2019-05-09T15:46:52.751Z,0.70
2019-05-09T15:49:22.133Z,1.00
2019-05-09T15:51:51.524Z,1.30
2019-05-09T15:54:20.900Z,1.00
2019-05-09T15:56:50.284Z,0.95
2019-05-09T15:59:19.664Z,1.00
2019-05-09T16:01:50.037Z,0.90
2019-05-09T16:04:19.487Z,1.10
2019-05-09T16:06:50.962Z,1.03
2019-05-09T16:09:20.049Z,0.80
2019-05-09T16:11:49.438Z,1.10
2019-05-09T16:14:18.838Z,1.27
2019-05-09T16:16:48.297Z,1.40
2019-05-09T16:19:17.681Z,0.90
2019-05-09T16:21:47.733Z,1.25
2019-05-09T16:24:18.988Z,1.02
2019-05-09T16:26:48.904Z,1.07
2019-05-09T16:29:18.670Z,1.10
2019-05-09T16:31:49.142Z,1.00
2019-05-09T16:34:18.521Z,1.22
2019-05-09T16:36:48.251Z,1.02
2019-05-09T16:39:18.185Z,0.93
2019-05-09T16:41:48.371Z,0.80
2019-05-09T16:44:18.543Z,1.05
2019-05-09T16:46:49.191Z,1.02
2019-05-09T16:49:19.886Z,1.20
2019-05-09T16:51:49.534Z,1.30
2019-05-09T16:54:19.488Z,1.07
2019-05-09T16:56:48.875Z,1.10
2019-05-09T16:59:18.342Z,0.90
2019-05-09T17:01:50.279Z,0.90
2019-05-09T17:04:20.010Z,0.80
2019-05-09T17:06:49.869Z,1.00
2019-05-09T17:09:19.247Z,0.80
2019-05-09T17:11:48.631Z,0.90
2019-05-09T17:14:19.303Z,0.90
2019-05-09T17:16:52.789Z,1.10
2019-05-09T17:19:21.145Z,0.83
2019-05-09T17:22:04.308Z,0.90
2019-05-09T17:24:33.670Z,0.80
2019-05-09T17:27:03.064Z,0.98
2019-05-09T17:29:32.440Z,1.20
2019-05-09T17:32:01.841Z,1.25
2019-05-09T17:34:31.279Z,1.60
2019-05-09T17:37:00.669Z,1.50
2019-05-09T17:39:30.123Z,1.60
2019-05-09T17:41:59.588Z,1.77
2019-05-09T17:44:28.974Z,1.30
2019-05-09T17:46:58.432Z,1.47
2019-05-09T17:49:28.154Z,1.40
2019-05-09T17:51:58.652Z,1.07
2019-05-09T17:54:28.723Z,0.97
2019-05-09T17:56:58.421Z,1.17
2019-05-09T17:59:29.221Z,1.20
2019-05-09T18:01:58.795Z,1.33
2019-05-09T18:04:28.982Z,1.20
2019-05-09T18:06:58.730Z,1.52
2019-05-09T18:09:28.687Z,1.70
2019-05-09T18:11:58.216Z,2.60
2019-05-09T18:14:27.910Z,2.10
2019-05-09T18:16:58.183Z,1.53
2019-05-09T18:19:29.259Z,1.27
2019-05-09T18:21:59.885Z,1.42
2019-05-09T18:24:29.257Z,1.82
2019-05-09T18:26:58.712Z,1.60
2019-05-09T18:29:28.628Z,1.40
2019-05-09T18:31:59.669Z,1.90
2019-05-09T18:34:29.135Z,1.40
2019-05-09T18:36:58.892Z,1.30
2019-05-09T18:39:28.541Z,1.50
2019-05-09T18:41:58.068Z,1.80
2019-05-09T18:44:27.654Z,1.90
2019-05-09T18:46:57.830Z,1.50
2019-05-09T18:49:27.342Z,1.60
2019-05-09T18:52:03.879Z,1.55
2019-05-09T18:54:27.874Z,1.30
2019-05-09T18:56:57.276Z,1.62
2019-05-09T18:59:26.680Z,1.90
2019-05-09T19:01:56.130Z,2.05
2019-05-09T19:04:25.545Z,2.13
2019-05-09T19:06:54.895Z,2.35
2019-05-09T19:09:24.312Z,2.60
2019-05-09T19:11:54.522Z,2.60
2019-05-09T19:14:24.425Z,1.87
2019-05-09T19:17:03.204Z,1.90
2019-05-09T19:19:37.201Z,2.25
2019-05-09T19:22:21.557Z,1.95
2019-05-09T19:24:38.503Z,1.42
2019-05-09T19:27:09.553Z,2.60
2019-05-09T19:29:38.927Z,2.40
2019-05-09T19:32:09.105Z,1.83
2019-05-09T19:34:39.442Z,1.70
2019-05-09T19:37:09.147Z,1.50
2019-05-09T19:39:38.852Z,1.80
2019-05-09T19:42:08.752Z,1.80
2019-05-09T19:44:38.730Z,2.17
2019-05-09T19:47:08.778Z,2.25
2019-05-09T19:49:39.237Z,2.03
2019-05-09T19:52:08.628Z,2.17
2019-05-09T19:54:38.004Z,2.30
2019-05-09T19:57:07.388Z,2.20
2019-05-09T19:59:36.792Z,2.40
2019-05-09T20:02:06.177Z,1.82
2019-05-09T20:04:35.638Z,1.40
2019-05-09T20:07:05.020Z,1.90
2019-05-09T20:09:36.117Z,1.65
2019-05-09T20:12:22.354Z,1.30
2019-05-09T20:14:53.459Z,1.62
2019-05-09T20:17:22.840Z,2.17
2019-05-09T20:19:52.203Z,1.70
2019-05-09T20:22:21.596Z,2.10
2019-05-09T20:24:50.971Z,1.73
2019-05-09T20:27:20.361Z,1.70
2019-05-09T20:29:49.742Z,1.70
2019-05-09T20:32:19.119Z,1.60
2019-05-09T20:34:48.578Z,1.60
2019-05-09T20:37:17.947Z,1.40
2019-05-09T20:39:47.678Z,1.40
2019-05-09T20:42:17.236Z,1.60
2019-05-09T20:44:46.806Z,1.20
2019-05-09T20:47:16.449Z,1.20
2019-05-09T20:49:47.090Z,1.30
2019-05-09T20:52:16.683Z,1.60
2019-05-09T20:54:46.312Z,1.45
2019-05-09T20:57:16.226Z,2.10
2019-05-09T20:59:46.571Z,1.50
2019-05-09T21:02:16.504Z,1.25
2019-05-09T21:04:46.459Z,1.70
2019-05-09T21:07:16.256Z,1.40
2019-05-09T21:09:45.819Z,1.50
2019-05-09T21:12:15.544Z,1.77
2019-05-09T21:14:45.801Z,1.77
2019-05-09T21:17:15.627Z,1.70
2019-05-09T21:19:46.017Z,1.85
2019-05-09T21:22:15.834Z,1.30
2019-05-09T21:24:45.884Z,1.70
2019-05-09T21:27:15.836Z,1.60
2019-05-09T21:29:45.918Z,1.50
2019-05-09T21:32:15.921Z,1.80
2019-05-09T21:34:45.883Z,1.70
2019-05-09T21:37:15.793Z,1.50
2019-05-09T21:39:46.067Z,1.82
2019-05-09T21:42:15.989Z,1.72
2019-05-09T21:44:46.001Z,1.50
2019-05-09T21:47:15.909Z,1.37
2019-05-09T21:49:46.131Z,1.90
2019-05-09T21:52:16.084Z,1.70
2019-05-09T21:54:46.137Z,2.00
2019-05-09T21:57:16.055Z,1.70
2019-05-09T21:59:46.270Z,1.70
2019-05-09T22:02:17.721Z,1.73
2019-05-09T22:04:47.239Z,1.80
2019-05-09T22:07:16.700Z,2.10
2019-05-09T22:09:46.270Z,1.63
2019-05-09T22:12:16.423Z,2.12
2019-05-09T22:14:46.452Z,1.90
2019-05-09T22:17:23.787Z,1.92
2019-05-09T22:19:53.175Z,1.93
2019-05-09T22:22:22.558Z,1.70
2019-05-09T22:24:51.932Z,2.27
2019-05-09T22:27:21.391Z,2.37
2019-05-09T22:29:50.764Z,2.00
2019-05-09T22:32:22.218Z,1.87
2019-05-09T22:34:51.244Z,1.90
2019-05-09T22:37:20.626Z,2.10
2019-05-09T22:39:50.015Z,2.08
2019-05-09T22:42:19.394Z,2.00
2019-05-09T22:44:49.083Z,1.82
2019-05-09T22:47:18.465Z,2.13
2019-05-09T22:49:47.843Z,1.77
2019-05-09T22:52:17.839Z,2.20
2019-05-09T22:54:48.013Z,2.10
2019-05-09T22:57:17.699Z,2.30
2019-05-09T22:59:47.689Z,2.00
2019-05-09T23:02:17.786Z,1.90
2019-05-09T23:04:47.750Z,1.85
2019-05-09T23:07:17.840Z,2.00
2019-05-09T23:09:47.845Z,2.05
2019-05-09T23:12:17.779Z,1.82
2019-05-09T23:14:47.804Z,1.92
2019-05-09T23:17:17.827Z,2.60
2019-05-09T23:19:47.840Z,2.00
2019-05-09T23:22:18.118Z,2.20
2019-05-09T23:24:47.797Z,2.00
2019-05-09T23:27:19.562Z,2.00
2019-05-09T23:29:48.971Z,1.90
2019-05-09T23:32:19.967Z,1.95
2019-05-09T23:34:49.338Z,1.85
2019-05-09T23:37:18.728Z,1.95
2019-05-09T23:39:49.752Z,1.80
2019-05-09T23:42:19.127Z,2.10
2019-05-09T23:44:48.516Z,1.85
2019-05-09T23:47:17.905Z,1.98
2019-05-09T23:49:48.047Z,1.77
2019-05-09T23:52:17.435Z,1.77
2019-05-09T23:55:05.167Z,1.98
2019-05-09T23:57:52.096Z,2.37
